sensor_id;sensor_type;location;lat;lon;timestamp;pressure;altitude;pressure_sealevel;temperature;humidity
7614;BME280;3848;42.016;23.098;2023-05-03T00:01:31;97325.53;;;14.91;100.00
7614;BME280;3848;42.016;23.098;2023-05-03T00:03:57;97330.84;;;14.83;100.00
7614;BME280;3848;42.016;23.098;2023-05-03T00:06:24;97325.03;;;14.75;100.00
7614;BME280;3848;42.016;23.098;2023-05-03T00:08:51;97312.34;;;14.71;100.00
7614;BME280;3848;42.016;23.098;2023-05-03T00:11:18;97317.28;;;14.78;100.00
7614;BME280;3848;42.016;23.098;2023-05-03T00:13:45;97312.94;;;14.83;100.00
7614;BME280;3848;42.016;23.098;2023-05-03T00:16:13;97302.66;;;14.85;100.00
7614;BME280;3848;42.016;23.098;2023-05-03T00:18:40;97306.06;;;14.85;100.00
7614;BME280;3848;42.016;23.098;2023-05-03T00:21:07;97290.69;;;14.87;100.00
7614;BME280;3848;42.016;23.098;2023-05-03T00:23:33;97288.72;;;14.97;100.00
7614;BME280;3848;42.016;23.098;2023-05-03T00:26:00;97282.66;;;15.02;100.00
7614;BME280;3848;42.016;23.098;2023-05-03T00:28:27;97282.66;;;15.02;100.00
7614;BME280;3848;42.016;23.098;2023-05-03T00:30:54;97268.06;;;15.06;100.00
7614;BME280;3848;42.016;23.098;2023-05-03T00:33:22;97251.88;;;15.05;100.00
7614;BME280;3848;42.016;23.098;2023-05-03T00:35:48;97252.72;;;15.06;100.00
7614;BME280;3848;42.016;23.098;2023-05-03T00:38:15;97255.31;;;15.04;100.00
7614;BME280;3848;42.016;23.098;2023-05-03T00:40:42;97255.31;;;15.04;100.00
7614;BME280;3848;42.016;23.098;2023-05-03T00:43:10;97264.72;;;15.04;100.00
7614;BME280;3848;42.016;23.098;2023-05-03T00:45:37;97261.34;;;15.02;100.00
7614;BME280;3848;42.016;23.098;2023-05-03T00:48:04;97254.50;;;15.02;100.00
7614;BME280;3848;42.016;23.098;2023-05-03T00:50:34;97257.88;;;15.04;100.00
7614;BME280;3848;42.016;23.098;2023-05-03T00:53:02;97251.16;;;14.99;100.00
7614;BME280;3848;42.016;23.098;2023-05-03T00:55:29;97255.59;;;14.92;100.00
7614;BME280;3848;42.016;23.098;2023-05-03T00:57:56;97269.25;;;14.91;100.00
7614;BME280;3848;42.016;23.098;2023-05-03T01:00:23;97258.19;;;14.90;100.00
7614;BME280;3848;42.016;23.098;2023-05-03T01:02:50;97266.66;;;14.92;100.00
7614;BME280;3848;42.016;23.098;2023-05-03T01:05:18;97268.44;;;14.89;100.00
7614;BME280;3848;42.016;23.098;2023-05-03T01:07:55;97244.78;;;14.81;100.00
7614;BME280;3848;42.016;23.098;2023-05-03T01:10:32;97266.91;;;14.82;100.00
7614;BME280;3848;42.016;23.098;2023-05-03T01:13:07;97264.44;;;14.79;100.00
7614;BME280;3848;42.016;23.098;2023-05-03T01:15:44;97265.28;;;14.79;100.00
7614;BME280;3848;42.016;23.098;2023-05-03T01:18:17;97270.53;;;14.72;100.00
7614;BME280;3848;42.016;23.098;2023-05-03T01:20:47;97274.78;;;14.73;100.00
7614;BME280;3848;42.016;23.098;2023-05-03T01:23:31;97273.25;;;14.66;100.00
7614;BME280;3848;42.016;23.098;2023-05-03T01:26:13;97275.72;;;14.69;100.00
7614;BME280;3848;42.016;23.098;2023-05-03T01:28:40;97288.41;;;14.73;100.00
7614;BME280;3848;42.016;23.098;2023-05-03T01:31:07;97279.06;;;14.72;100.00
7614;BME280;3848;42.016;23.098;2023-05-03T01:33:39;97287.66;;;14.70;100.00
7614;BME280;3848;42.016;23.098;2023-05-03T01:36:12;97265.53;;;14.67;100.00
7614;BME280;3848;42.016;23.098;2023-05-03T01:38:41;97269.75;;;14.70;100.00
7614;BME280;3848;42.016;23.098;2023-05-03T01:41:11;97263.78;;;14.69;100.00
7614;BME280;3848;42.016;23.098;2023-05-03T01:43:39;97278.28;;;14.69;100.00
7614;BME280;3848;42.016;23.098;2023-05-03T01:46:06;97259.81;;;14.56;100.00
7614;BME280;3848;42.016;23.098;2023-05-03T01:48:33;97278.31;;;14.67;100.00
7614;BME280;3848;42.016;23.098;2023-05-03T01:51:00;97253.03;;;14.53;100.00
7614;BME280;3848;42.016;23.098;2023-05-03T01:53:27;97266.59;;;14.57;100.00
7614;BME280;3848;42.016;23.098;2023-05-03T01:55:53;97277.78;;;14.53;100.00
7614;BME280;3848;42.016;23.098;2023-05-03T01:58:21;97273.56;;;14.50;100.00
7614;BME280;3848;42.016;23.098;2023-05-03T02:00:48;97272.03;;;14.43;100.00
7614;BME280;3848;42.016;23.098;2023-05-03T02:03:15;97262.72;;;14.39;100.00
7614;BME280;3848;42.016;23.098;2023-05-03T02:05:42;97256.72;;;14.40;100.00
7614;BME280;3848;42.016;23.098;2023-05-03T02:08:08;97259.34;;;14.35;100.00
7614;BME280;3848;42.016;23.098;2023-05-03T02:10:35;97256.97;;;14.28;100.00
7614;BME280;3848;42.016;23.098;2023-05-03T02:13:02;97258.00;;;14.19;100.00
7614;BME280;3848;42.016;23.098;2023-05-03T02:15:30;97263.19;;;14.15;100.00
7614;BME280;3848;42.016;23.098;2023-05-03T02:17:57;97260.00;;;14.05;100.00
7614;BME280;3848;42.016;23.098;2023-05-03T02:20:26;97262.50;;;14.07;100.00
7614;BME280;3848;42.016;23.098;2023-05-03T02:22:56;97264.19;;;14.08;100.00
7614;BME280;3848;42.016;23.098;2023-05-03T02:25:23;97264.19;;;14.08;100.00
7614;BME280;3848;42.016;23.098;2023-05-03T02:27:50;97258.38;;;14.01;100.00
7614;BME280;3848;42.016;23.098;2023-05-03T02:30:17;97256.63;;;14.03;100.00
7614;BME280;3848;42.016;23.098;2023-05-03T02:32:45;97249.66;;;14.10;100.00
7614;BME280;3848;42.016;23.098;2023-05-03T02:35:12;97253.84;;;14.14;100.00
7614;BME280;3848;42.016;23.098;2023-05-03T02:37:39;97256.41;;;14.14;100.00
7614;BME280;3848;42.016;23.098;2023-05-03T02:40:06;97263.13;;;14.19;100.00
7614;BME280;3848;42.016;23.098;2023-05-03T02:42:34;97265.81;;;14.12;100.00
7614;BME280;3848;42.016;23.098;2023-05-03T02:45:01;97268.31;;;14.15;100.00
7614;BME280;3848;42.016;23.098;2023-05-03T02:47:27;97264.91;;;14.14;100.00
7614;BME280;3848;42.016;23.098;2023-05-03T02:49:55;97274.31;;;14.12;100.00
7614;BME280;3848;42.016;23.098;2023-05-03T02:52:22;97271.81;;;14.09;100.00
7614;BME280;3848;42.016;23.098;2023-05-03T02:54:49;97277.78;;;14.10;100.00
7614;BME280;3848;42.016;23.098;2023-05-03T02:57:16;97282.09;;;14.08;100.00
7614;BME280;3848;42.016;23.098;2023-05-03T02:59:43;97288.75;;;14.16;100.00
7614;BME280;3848;42.016;23.098;2023-05-03T03:02:09;97305.69;;;14.20;100.00
7614;BME280;3848;42.016;23.098;2023-05-03T03:04:36;97309.25;;;14.12;100.00
7614;BME280;3848;42.016;23.098;2023-05-03T03:07:04;97313.69;;;14.03;100.00
7614;BME280;3848;42.016;23.098;2023-05-03T03:09:31;97315.56;;;13.92;100.00
7614;BME280;3848;42.016;23.098;2023-05-03T03:12:00;97335.09;;;13.98;100.00
7614;BME280;3848;42.016;23.098;2023-05-03T03:14:27;97347.03;;;13.94;100.00
7614;BME280;3848;42.016;23.098;2023-05-03T03:16:54;97343.84;;;13.83;99.21
7614;BME280;3848;42.016;23.098;2023-05-03T03:19:21;97311.16;;;13.56;96.43
7614;BME280;3848;42.016;23.098;2023-05-03T03:21:48;97393.38;;;13.76;98.25
7614;BME280;3848;42.016;23.098;2023-05-03T03:24:16;97398.56;;;13.68;100.00
7614;BME280;3848;42.016;23.098;2023-05-03T03:26:43;97404.59;;;13.64;100.00
7614;BME280;3848;42.016;23.098;2023-05-03T03:29:10;97403.91;;;13.53;99.96
7614;BME280;3848;42.016;23.098;2023-05-03T03:31:36;97399.75;;;13.48;100.00
7614;BME280;3848;42.016;23.098;2023-05-03T03:34:03;97408.25;;;13.48;100.00
7614;BME280;3848;42.016;23.098;2023-05-03T03:36:30;97408.34;;;13.43;99.46
7614;BME280;3848;42.016;23.098;2023-05-03T03:38:57;97399.00;;;13.42;100.00
7614;BME280;3848;42.016;23.098;2023-05-03T03:41:25;97410.88;;;13.45;100.00
7614;BME280;3848;42.016;23.098;2023-05-03T03:43:52;97404.03;;;13.47;99.75
7614;BME280;3848;42.016;23.098;2023-05-03T03:46:18;97409.03;;;13.53;98.55
7614;BME280;3848;42.016;23.098;2023-05-03T03:48:45;97409.91;;;13.54;97.02
7614;BME280;3848;42.016;23.098;2023-05-03T03:51:12;97416.63;;;13.58;93.81
7614;BME280;3848;42.016;23.098;2023-05-03T03:53:38;97415.78;;;13.57;93.97
7614;BME280;3848;42.016;23.098;2023-05-03T03:56:06;97436.16;;;13.60;96.75
7614;BME280;3848;42.016;23.098;2023-05-03T03:58:34;97433.69;;;13.56;98.08
7614;BME280;3848;42.016;23.098;2023-05-03T04:01:01;97430.22;;;13.60;100.00
7614;BME280;3848;42.016;23.098;2023-05-03T04:03:28;97421.84;;;13.50;100.00
7614;BME280;3848;42.016;23.098;2023-05-03T04:05:55;97438.66;;;13.65;100.00
7614;BME280;3848;42.016;23.098;2023-05-03T04:08:22;97441.22;;;13.63;100.00
7614;BME280;3848;42.016;23.098;2023-05-03T04:10:49;97439.59;;;13.59;100.00
7614;BME280;3848;42.016;23.098;2023-05-03T04:13:15;97454.91;;;13.59;100.00
7614;BME280;3848;42.016;23.098;2023-05-03T04:15:44;97448.97;;;13.59;100.00
7614;BME280;3848;42.016;23.098;2023-05-03T04:18:10;97427.78;;;13.51;100.00
7614;BME280;3848;42.016;23.098;2023-05-03T04:20:37;97421.75;;;13.58;100.00
7614;BME280;3848;42.016;23.098;2023-05-03T04:23:04;97434.47;;;13.61;100.00
7614;BME280;3848;42.016;23.098;2023-05-03T04:25:31;97444.75;;;13.56;100.00
7614;BME280;3848;42.016;23.098;2023-05-03T04:27:58;97455.72;;;13.61;100.00
7614;BME280;3848;42.016;23.098;2023-05-03T04:30:24;97464.41;;;13.50;100.00
7614;BME280;3848;42.016;23.098;2023-05-03T04:32:52;97461.16;;;13.38;100.00
7614;BME280;3848;42.016;23.098;2023-05-03T04:35:19;97460.41;;;13.30;100.00
7614;BME280;3848;42.016;23.098;2023-05-03T04:37:46;97465.66;;;13.21;100.00
7614;BME280;3848;42.016;23.098;2023-05-03T04:40:13;97434.25;;;13.11;100.00
7614;BME280;3848;42.016;23.098;2023-05-03T04:42:41;97455.34;;;13.27;100.00
7614;BME280;3848;42.016;23.098;2023-05-03T04:45:09;97456.16;;;13.31;100.00
7614;BME280;3848;42.016;23.098;2023-05-03T04:47:36;97448.47;;;13.35;100.00
7614;BME280;3848;42.016;23.098;2023-05-03T04:50:06;97437.34;;;13.39;100.00
7614;BME280;3848;42.016;23.098;2023-05-03T04:52:33;97354.56;;;12.96;100.00
7614;BME280;3848;42.016;23.098;2023-05-03T04:55:00;97408.34;;;13.43;100.00
7614;BME280;3848;42.016;23.098;2023-05-03T04:57:28;97420.88;;;13.59;100.00
7614;BME280;3848;42.016;23.098;2023-05-03T04:59:54;97350.66;;;13.30;100.00
7614;BME280;3848;42.016;23.098;2023-05-03T05:02:21;97396.91;;;13.67;100.00
7614;BME280;3848;42.016;23.098;2023-05-03T05:04:48;97368.19;;;13.53;100.00
7614;BME280;3848;42.016;23.098;2023-05-03T05:07:16;97388.38;;;13.68;100.00
7614;BME280;3848;42.016;23.098;2023-05-03T05:09:43;97383.47;;;13.56;100.00
7614;BME280;3848;42.016;23.098;2023-05-03T05:12:10;97385.28;;;13.48;100.00
7614;BME280;3848;42.016;23.098;2023-05-03T05:14:37;97414.97;;;13.57;100.00
7614;BME280;3848;42.016;23.098;2023-05-03T05:17:04;97437.06;;;13.58;100.00
7614;BME280;3848;42.016;23.098;2023-05-03T05:19:31;97436.97;;;13.64;100.00
7614;BME280;3848;42.016;23.098;2023-05-03T05:21:57;97374.44;;;13.35;100.00
7614;BME280;3848;42.016;23.098;2023-05-03T05:24:26;97370.19;;;13.36;100.00
7614;BME280;3848;42.016;23.098;2023-05-03T05:26:52;97429.00;;;13.84;100.00
7614;BME280;3848;42.016;23.098;2023-05-03T05:29:19;97432.22;;;13.93;100.00
7614;BME280;3848;42.016;23.098;2023-05-03T05:31:46;97441.53;;;13.99;100.00
7614;BME280;3848;42.016;23.098;2023-05-03T05:34:13;97435.63;;;13.94;100.00
7614;BME280;3848;42.016;23.098;2023-05-03T05:36:40;97439.81;;;13.99;100.00
7614;BME280;3848;42.016;23.098;2023-05-03T05:39:06;97432.88;;;14.06;100.00
7614;BME280;3848;42.016;23.098;2023-05-03T05:41:35;97428.44;;;14.16;100.00
7614;BME280;3848;42.016;23.098;2023-05-03T05:44:02;97431.69;;;14.25;100.00
7614;BME280;3848;42.016;23.098;2023-05-03T05:46:28;97433.19;;;14.35;100.00
7614;BME280;3848;42.016;23.098;2023-05-03T05:48:55;97432.16;;;14.47;100.00
7614;BME280;3848;42.016;23.098;2023-05-03T05:51:22;97430.31;;;14.55;100.00
7614;BME280;3848;42.016;23.098;2023-05-03T05:53:49;97395.38;;;14.54;100.00
7614;BME280;3848;42.016;23.098;2023-05-03T05:56:15;97415.44;;;14.74;100.00
7614;BME280;3848;42.016;23.098;2023-05-03T05:58:44;97392.44;;;14.73;100.00
7614;BME280;3848;42.016;23.098;2023-05-03T06:01:11;97387.16;;;14.82;100.00
7614;BME280;3848;42.016;23.098;2023-05-03T06:03:38;97393.00;;;14.88;100.00
7614;BME280;3848;42.016;23.098;2023-05-03T06:06:05;97403.84;;;14.98;100.00
7614;BME280;3848;42.016;23.098;2023-05-03T06:08:32;97362.72;;;14.67;100.00
7614;BME280;3848;42.016;23.098;2023-05-03T06:10:59;97403.09;;;14.94;100.00
7614;BME280;3848;42.016;23.098;2023-05-03T06:13:26;97367.47;;;14.85;100.00
7614;BME280;3848;42.016;23.098;2023-05-03T06:15:54;97415.34;;;15.19;100.00
7614;BME280;3848;42.016;23.098;2023-05-03T06:18:20;97410.22;;;15.19;100.00
7614;BME280;3848;42.016;23.098;2023-05-03T06:20:48;97406.78;;;15.21;100.00
7614;BME280;3848;42.016;23.098;2023-05-03T06:23:15;97415.97;;;15.30;100.00
7614;BME280;3848;42.016;23.098;2023-05-03T06:25:44;97422.66;;;15.36;100.00
7614;BME280;3848;42.016;23.098;2023-05-03T06:28:11;97426.84;;;15.41;100.00
7614;BME280;3848;42.016;23.098;2023-05-03T06:30:38;97431.91;;;15.43;100.00
7614;BME280;3848;42.016;23.098;2023-05-03T06:33:09;97422.63;;;15.37;100.00
7614;BME280;3848;42.016;23.098;2023-05-03T06:35:36;97436.97;;;15.46;100.00
7614;BME280;3848;42.016;23.098;2023-05-03T06:38:03;97440.38;;;15.46;100.00
7614;BME280;3848;42.016;23.098;2023-05-03T06:40:29;97439.56;;;15.44;100.00
7614;BME280;3848;42.016;23.098;2023-05-03T06:42:56;97435.44;;;15.37;100.00
7614;BME280;3848;42.016;23.098;2023-05-03T06:45:23;97445.44;;;15.48;100.00
7614;BME280;3848;42.016;23.098;2023-05-03T06:47:50;97402.25;;;15.33;100.00
7614;BME280;3848;42.016;23.098;2023-05-03T06:50:18;97419.03;;;15.46;100.00
7614;BME280;3848;42.016;23.098;2023-05-03T06:52:46;97406.34;;;15.40;100.00
7614;BME280;3848;42.016;23.098;2023-05-03T06:55:13;97416.25;;;15.55;100.00
7614;BME280;3848;42.016;23.098;2023-05-03T06:57:40;97433.91;;;15.69;100.00
7614;BME280;3848;42.016;23.098;2023-05-03T07:00:08;97430.44;;;15.71;100.00
7614;BME280;3848;42.016;23.098;2023-05-03T07:02:35;97438.06;;;15.73;100.00
7614;BME280;3848;42.016;23.098;2023-05-03T07:05:03;97441.28;;;15.82;100.00
7614;BME280;3848;42.016;23.098;2023-05-03T07:07:31;97433.59;;;15.81;100.00
7614;BME280;3848;42.016;23.098;2023-05-03T07:09:58;97435.78;;;15.96;100.00
7614;BME280;3848;42.016;23.098;2023-05-03T07:12:25;97421.34;;;15.94;100.00
7614;BME280;3848;42.016;23.098;2023-05-03T07:14:53;97434.41;;;16.17;100.00
7614;BME280;3848;42.016;23.098;2023-05-03T07:17:20;97438.59;;;16.21;100.00
7614;BME280;3848;42.016;23.098;2023-05-03T07:19:48;97443.25;;;16.39;100.00
7614;BME280;3848;42.016;23.098;2023-05-03T07:22:15;97443.03;;;16.49;100.00
7614;BME280;3848;42.016;23.098;2023-05-03T07:24:44;97448.69;;;16.60;100.00
7614;BME280;3848;42.016;23.098;2023-05-03T07:27:12;97458.63;;;16.73;100.00
7614;BME280;3848;42.016;23.098;2023-05-03T07:29:39;97462.44;;;16.90;100.00
7614;BME280;3848;42.016;23.098;2023-05-03T07:32:07;97448.38;;;17.03;100.00
7614;BME280;3848;42.016;23.098;2023-05-03T07:34:34;97456.72;;;17.11;100.00
7614;BME280;3848;42.016;23.098;2023-05-03T07:37:00;97439.53;;;17.13;100.00
7614;BME280;3848;42.016;23.098;2023-05-03T07:39:27;97466.88;;;17.44;100.00
7614;BME280;3848;42.016;23.098;2023-05-03T07:41:56;97467.19;;;17.33;100.00
7614;BME280;3848;42.016;23.098;2023-05-03T07:44:24;97459.84;;;17.21;100.00
7614;BME280;3848;42.016;23.098;2023-05-03T07:46:57;97469.88;;;17.30;100.00
7614;BME280;3848;42.016;23.098;2023-05-03T07:49:24;97468.03;;;17.33;100.00
7614;BME280;3848;42.016;23.098;2023-05-03T07:51:50;97470.66;;;17.32;100.00
7614;BME280;3848;42.016;23.098;2023-05-03T07:54:17;97480.44;;;17.19;100.00
7614;BME280;3848;42.016;23.098;2023-05-03T07:56:44;97470.31;;;17.15;100.00
7614;BME280;3848;42.016;23.098;2023-05-03T07:59:12;97467.03;;;17.10;100.00
7614;BME280;3848;42.016;23.098;2023-05-03T08:01:39;97465.34;;;17.09;100.00
7614;BME280;3848;42.016;23.098;2023-05-03T08:04:06;97459.56;;;17.00;100.00
7614;BME280;3848;42.016;23.098;2023-05-03T08:06:32;97456.81;;;17.08;100.00
7614;BME280;3848;42.016;23.098;2023-05-03T08:09:00;97447.88;;;17.20;100.00
7614;BME280;3848;42.016;23.098;2023-05-03T08:11:28;97438.91;;;17.34;100.00
7614;BME280;3848;42.016;23.098;2023-05-03T08:13:55;97437.72;;;17.45;100.00
7614;BME280;3848;42.016;23.098;2023-05-03T08:16:25;97428.59;;;17.62;100.00
7614;BME280;3848;42.016;23.098;2023-05-03T08:18:53;97427.91;;;17.57;100.00
7614;BME280;3848;42.016;23.098;2023-05-03T08:21:19;97413.03;;;17.67;100.00
7614;BME280;3848;42.016;23.098;2023-05-03T08:23:49;97420.41;;;17.79;100.00
7614;BME280;3848;42.016;23.098;2023-05-03T08:26:15;97421.81;;;17.88;100.00
7614;BME280;3848;42.016;23.098;2023-05-03T08:28:42;97411.63;;;17.85;100.00
7614;BME280;3848;42.016;23.098;2023-05-03T08:31:09;97371.38;;;17.57;100.00
7614;BME280;3848;42.016;23.098;2023-05-03T08:33:38;97405.38;;;17.65;100.00
7614;BME280;3848;42.016;23.098;2023-05-03T08:36:05;97403.00;;;17.59;100.00
7614;BME280;3848;42.016;23.098;2023-05-03T08:38:32;97405.94;;;17.47;100.00
7614;BME280;3848;42.016;23.098;2023-05-03T08:41:08;97417.44;;;17.35;100.00
7614;BME280;3848;42.016;23.098;2023-05-03T08:43:43;97383.81;;;16.86;100.00
7614;BME280;3848;42.016;23.098;2023-05-03T08:46:10;97427.53;;;17.14;100.00
7614;BME280;3848;42.016;23.098;2023-05-03T08:48:39;97414.53;;;17.18;100.00
7614;BME280;3848;42.016;23.098;2023-05-03T08:51:07;97415.59;;;17.13;100.00
7614;BME280;3848;42.016;23.098;2023-05-03T08:53:35;97421.69;;;17.09;100.00
7614;BME280;3848;42.016;23.098;2023-05-03T08:56:06;97412.47;;;17.01;100.00
7614;BME280;3848;42.016;23.098;2023-05-03T08:58:33;97419.13;;;17.09;100.00
7614;BME280;3848;42.016;23.098;2023-05-03T09:01:04;97406.06;;;17.16;100.00
7614;BME280;3848;42.016;23.098;2023-05-03T09:03:31;97393.69;;;17.29;100.00
7614;BME280;3848;42.016;23.098;2023-05-03T09:06:00;97385.50;;;17.44;100.00
7614;BME280;3848;42.016;23.098;2023-05-03T09:08:27;97382.38;;;17.61;100.00
7614;BME280;3848;42.016;23.098;2023-05-03T09:10:54;97387.75;;;17.81;100.00
7614;BME280;3848;42.016;23.098;2023-05-03T09:13:29;97384.84;;;17.92;100.00
7614;BME280;3848;42.016;23.098;2023-05-03T09:15:56;97389.78;;;17.98;100.00
7614;BME280;3848;42.016;23.098;2023-05-03T09:18:23;97392.19;;;18.03;100.00
7614;BME280;3848;42.016;23.098;2023-05-03T09:20:51;97390.16;;;18.12;100.00
7614;BME280;3848;42.016;23.098;2023-05-03T09:23:28;97392.47;;;18.20;100.00
7614;BME280;3848;42.016;23.098;2023-05-03T09:25:57;97375.25;;;18.22;100.00
7614;BME280;3848;42.016;23.098;2023-05-03T09:28:24;97371.06;;;18.19;100.00
7614;BME280;3848;42.016;23.098;2023-05-03T09:31:03;97375.75;;;18.07;100.00
7614;BME280;3848;42.016;23.098;2023-05-03T09:33:32;97364.44;;;18.12;100.00
7614;BME280;3848;42.016;23.098;2023-05-03T09:36:00;97358.47;;;18.12;100.00
7614;BME280;3848;42.016;23.098;2023-05-03T09:38:29;97367.09;;;18.09;100.00
7614;BME280;3848;42.016;23.098;2023-05-03T09:40:56;97353.84;;;17.96;100.00
7614;BME280;3848;42.016;23.098;2023-05-03T09:43:23;97367.03;;;18.12;100.00
7614;BME280;3848;42.016;23.098;2023-05-03T09:45:50;97336.06;;;17.89;100.00
7614;BME280;3848;42.016;23.098;2023-05-03T09:48:17;97365.22;;;18.14;100.00
7614;BME280;3848;42.016;23.098;2023-05-03T09:50:48;97355.03;;;18.11;100.00
7614;BME280;3848;42.016;23.098;2023-05-03T09:53:15;97361.22;;;18.06;100.00
7614;BME280;3848;42.016;23.098;2023-05-03T09:55:44;97362.13;;;18.05;100.00
7614;BME280;3848;42.016;23.098;2023-05-03T09:58:17;97360.63;;;17.73;100.00
7614;BME280;3848;42.016;23.098;2023-05-03T10:00:45;97360.31;;;17.55;100.00
7614;BME280;3848;42.016;23.098;2023-05-03T10:03:19;97346.06;;;17.45;100.00
7614;BME280;3848;42.016;23.098;2023-05-03T10:05:49;97344.47;;;17.41;100.00
7614;BME280;3848;42.016;23.098;2023-05-03T10:08:27;97350.72;;;17.34;100.00
7614;BME280;3848;42.016;23.098;2023-05-03T10:10:59;97350.25;;;17.49;100.00
7614;BME280;3848;42.016;23.098;2023-05-03T10:13:28;97348.25;;;17.57;100.00
7614;BME280;3848;42.016;23.098;2023-05-03T10:15:57;97338.28;;;17.75;100.00
7614;BME280;3848;42.016;23.098;2023-05-03T10:18:30;97327.22;;;17.97;100.00
7614;BME280;3848;42.016;23.098;2023-05-03T10:21:01;97329.91;;;18.19;100.00
7614;BME280;3848;42.016;23.098;2023-05-03T10:23:28;97323.19;;;18.39;100.00
7614;BME280;3848;42.016;23.098;2023-05-03T10:26:15;97320.59;;;18.64;100.00
7614;BME280;3848;42.016;23.098;2023-05-03T10:28:42;97325.06;;;18.82;100.00
7614;BME280;3848;42.016;23.098;2023-05-03T10:31:42;97327.00;;;18.99;100.00
7614;BME280;3848;42.016;23.098;2023-05-03T10:34:20;97286.63;;;18.99;100.00
7614;BME280;3848;42.016;23.098;2023-05-03T10:36:47;97309.56;;;19.27;100.00
7614;BME280;3848;42.016;23.098;2023-05-03T10:39:17;97301.63;;;19.32;100.00
7614;BME280;3848;42.016;23.098;2023-05-03T10:41:56;97309.91;;;19.40;100.00
7614;BME280;3848;42.016;23.098;2023-05-03T10:44:26;97300.66;;;19.34;100.00
7614;BME280;3848;42.016;23.098;2023-05-03T10:46:54;97300.66;;;19.34;100.00
7614;BME280;3848;42.016;23.098;2023-05-03T10:49:21;97298.22;;;19.31;100.00
7614;BME280;3848;42.016;23.098;2023-05-03T10:51:48;97296.22;;;19.17;100.00
7614;BME280;3848;42.016;23.098;2023-05-03T10:54:16;97289.19;;;19.21;100.00
7614;BME280;3848;42.016;23.098;2023-05-03T10:56:55;97294.63;;;19.35;100.00
7614;BME280;3848;42.016;23.098;2023-05-03T10:59:22;97284.66;;;19.48;100.00
7614;BME280;3848;42.016;23.098;2023-05-03T11:01:51;97226.06;;;19.31;100.00
7614;BME280;3848;42.016;23.098;2023-05-03T11:04:39;97279.13;;;19.77;100.00
7614;BME280;3848;42.016;23.098;2023-05-03T11:07:08;97270.25;;;19.85;100.00
7614;BME280;3848;42.016;23.098;2023-05-03T11:09:35;97261.50;;;19.68;100.00
7614;BME280;3848;42.016;23.098;2023-05-03T11:12:05;97265.53;;;19.74;100.00
7614;BME280;3848;42.016;23.098;2023-05-03T11:14:33;97260.16;;;19.80;100.00
7614;BME280;3848;42.016;23.098;2023-05-03T11:17:00;97264.13;;;19.67;100.00
7614;BME280;3848;42.016;23.098;2023-05-03T11:19:27;97246.75;;;19.50;100.00
7614;BME280;3848;42.016;23.098;2023-05-03T11:21:54;97260.78;;;19.65;100.00
7614;BME280;3848;42.016;23.098;2023-05-03T11:24:21;97262.72;;;19.60;100.00
7614;BME280;3848;42.016;23.098;2023-05-03T11:26:48;97253.72;;;19.48;100.00
7614;BME280;3848;42.016;23.098;2023-05-03T11:29:16;97263.41;;;19.43;98.42
7614;BME280;3848;42.016;23.098;2023-05-03T11:31:44;97257.75;;;19.33;100.00
7614;BME280;3848;42.016;23.098;2023-05-03T11:34:12;97250.78;;;19.15;95.93
7614;BME280;3848;42.016;23.098;2023-05-03T11:36:39;97242.91;;;18.98;100.00
7614;BME280;3848;42.016;23.098;2023-05-03T11:39:06;97217.16;;;18.52;100.00
7614;BME280;3848;42.016;23.098;2023-05-03T11:41:34;97243.47;;;18.61;96.69
7614;BME280;3848;42.016;23.098;2023-05-03T11:44:01;97254.84;;;18.55;97.80
7614;BME280;3848;42.016;23.098;2023-05-03T11:46:32;97241.94;;;18.33;100.00
7614;BME280;3848;42.016;23.098;2023-05-03T11:49:00;97246.69;;;18.20;100.00
7614;BME280;3848;42.016;23.098;2023-05-03T11:51:27;97246.81;;;18.17;100.00
7614;BME280;3848;42.016;23.098;2023-05-03T11:53:55;97248.78;;;18.09;100.00
7614;BME280;3848;42.016;23.098;2023-05-03T11:56:22;97262.78;;;18.02;100.00
7614;BME280;3848;42.016;23.098;2023-05-03T11:58:51;97222.00;;;17.66;100.00
7614;BME280;3848;42.016;23.098;2023-05-03T12:01:18;97270.28;;;17.83;100.00
7614;BME280;3848;42.016;23.098;2023-05-03T12:03:51;97288.44;;;17.79;100.00
7614;BME280;3848;42.016;23.098;2023-05-03T12:06:19;97288.97;;;17.62;100.00
7614;BME280;3848;42.016;23.098;2023-05-03T12:08:46;97307.72;;;17.65;100.00
7614;BME280;3848;42.016;23.098;2023-05-03T12:11:13;97311.78;;;17.46;100.00
7614;BME280;3848;42.016;23.098;2023-05-03T12:13:40;97328.97;;;17.18;100.00
7614;BME280;3848;42.016;23.098;2023-05-03T12:16:08;97333.88;;;16.97;100.00
7614;BME280;3848;42.016;23.098;2023-05-03T12:18:48;97319.59;;;16.58;100.00
7614;BME280;3848;42.016;23.098;2023-05-03T12:21:16;97308.78;;;16.48;100.00
7614;BME280;3848;42.016;23.098;2023-05-03T12:23:43;97290.47;;;16.31;100.00
7614;BME280;3848;42.016;23.098;2023-05-03T12:26:09;97294.09;;;16.22;100.00
7614;BME280;3848;42.016;23.098;2023-05-03T12:28:36;97282.13;;;16.24;100.00
7614;BME280;3848;42.016;23.098;2023-05-03T12:31:03;97292.13;;;16.32;100.00
7614;BME280;3848;42.016;23.098;2023-05-03T12:33:30;97276.38;;;16.44;100.00
7614;BME280;3848;42.016;23.098;2023-05-03T12:35:58;97272.06;;;16.75;100.00
7614;BME280;3848;42.016;23.098;2023-05-03T12:38:26;97244.59;;;17.05;100.00
7614;BME280;3848;42.016;23.098;2023-05-03T12:40:53;97248.53;;;17.42;100.00
7614;BME280;3848;42.016;23.098;2023-05-03T12:43:20;97246.97;;;17.63;100.00
7614;BME280;3848;42.016;23.098;2023-05-03T12:45:47;97255.16;;;17.76;100.00
7614;BME280;3848;42.016;23.098;2023-05-03T12:48:13;97258.44;;;17.79;100.00
7614;BME280;3848;42.016;23.098;2023-05-03T12:50:40;97257.97;;;17.66;100.00
7614;BME280;3848;42.016;23.098;2023-05-03T12:53:08;97250.72;;;17.54;100.00
7614;BME280;3848;42.016;23.098;2023-05-03T12:55:37;97237.97;;;17.51;100.00
7614;BME280;3848;42.016;23.098;2023-05-03T12:58:04;97233.78;;;17.47;100.00
7614;BME280;3848;42.016;23.098;2023-05-03T13:00:31;97246.25;;;17.59;100.00
7614;BME280;3848;42.016;23.098;2023-05-03T13:02:57;97242.63;;;17.65;100.00
7614;BME280;3848;42.016;23.098;2023-05-03T13:05:24;97246.75;;;17.71;100.00